sensor_id;sensor_type;location;lat;lon;timestamp;P1;durP1;ratioP1;P2;durP2;ratioP2
72559;SDS011;62987;52.382;9.752;2024-03-02T12:23:23;8.52;;;4.13;;
72559;SDS011;62987;52.382;9.752;2024-03-02T12:25:52;8.30;;;3.95;;
72559;SDS011;62987;52.382;9.752;2024-03-02T12:28:21;7.05;;;3.83;;
72559;SDS011;62987;52.382;9.752;2024-03-02T12:30:50;7.80;;;3.75;;
72559;SDS011;62987;52.382;9.752;2024-03-02T12:33:19;8.90;;;3.95;;
72559;SDS011;62987;52.382;9.752;2024-03-02T12:35:48;9.40;;;4.60;;
72559;SDS011;62987;52.382;9.752;2024-03-02T12:38:17;8.15;;;3.35;;
72559;SDS011;62987;52.382;9.752;2024-03-02T12:40:49;8.30;;;3.63;;
72559;SDS011;62987;52.382;9.752;2024-03-02T12:43:17;7.97;;;3.78;;
72559;SDS011;62987;52.382;9.752;2024-03-02T12:45:45;7.97;;;3.63;;
72559;SDS011;62987;52.382;9.752;2024-03-02T12:48:14;7.85;;;3.63;;
72559;SDS011;62987;52.382;9.752;2024-03-02T12:50:43;8.02;;;3.78;;
72559;SDS011;62987;52.382;9.752;2024-03-02T12:53:14;7.03;;;3.22;;
72559;SDS011;62987;52.382;9.752;2024-03-02T12:55:44;7.38;;;3.33;;
72559;SDS011;62987;52.382;9.752;2024-03-02T12:58:20;6.15;;;2.92;;
72559;SDS011;62987;52.382;9.752;2024-03-02T13:00:50;6.05;;;2.95;;
72559;SDS011;62987;52.382;9.752;2024-03-02T13:03:18;5.68;;;3.05;;
72559;SDS011;62987;52.382;9.752;2024-03-02T13:05:49;6.90;;;3.40;;
72559;SDS011;62987;52.382;9.752;2024-03-02T13:08:18;6.30;;;3.33;;
72559;SDS011;62987;52.382;9.752;2024-03-02T13:10:47;9.07;;;3.20;;
72559;SDS011;62987;52.382;9.752;2024-03-02T13:13:15;7.43;;;2.83;;
72559;SDS011;62987;52.382;9.752;2024-03-02T13:15:45;6.28;;;2.70;;
72559;SDS011;62987;52.382;9.752;2024-03-02T13:18:14;5.32;;;2.53;;
72559;SDS011;62987;52.382;9.752;2024-03-02T13:20:42;6.60;;;2.47;;
72559;SDS011;62987;52.382;9.752;2024-03-02T13:23:11;6.50;;;3.05;;
72559;SDS011;62987;52.382;9.752;2024-03-02T13:25:39;7.85;;;2.92;;
72559;SDS011;62987;52.382;9.752;2024-03-02T13:28:08;6.90;;;2.95;;
72559;SDS011;62987;52.382;9.752;2024-03-02T13:30:37;5.93;;;2.03;;
72559;SDS011;62987;52.382;9.752;2024-03-02T13:33:06;4.32;;;1.92;;
72559;SDS011;62987;52.382;9.752;2024-03-02T13:35:35;5.28;;;2.22;;
72559;SDS011;62987;52.382;9.752;2024-03-02T13:38:03;5.32;;;2.55;;
72559;SDS011;62987;52.382;9.752;2024-03-02T13:40:32;6.47;;;2.17;;
72559;SDS011;62987;52.382;9.752;2024-03-02T13:43:02;7.50;;;2.28;;
72559;SDS011;62987;52.382;9.752;2024-03-02T13:45:31;5.47;;;2.72;;
72559;SDS011;62987;52.382;9.752;2024-03-02T13:48:00;4.22;;;1.83;;
72559;SDS011;62987;52.382;9.752;2024-03-02T13:50:31;6.68;;;2.22;;
72559;SDS011;62987;52.382;9.752;2024-03-02T13:53:00;5.72;;;2.60;;
72559;SDS011;62987;52.382;9.752;2024-03-02T13:55:29;4.55;;;2.20;;
72559;SDS011;62987;52.382;9.752;2024-03-02T13:57:58;4.30;;;2.15;;
72559;SDS011;62987;52.382;9.752;2024-03-02T14:00:27;5.53;;;2.35;;
72559;SDS011;62987;52.382;9.752;2024-03-02T14:02:56;5.25;;;2.10;;
72559;SDS011;62987;52.382;9.752;2024-03-02T14:05:24;3.92;;;1.90;;
72559;SDS011;62987;52.382;9.752;2024-03-02T14:07:54;5.43;;;2.55;;
72559;SDS011;62987;52.382;9.752;2024-03-02T14:10:23;5.40;;;2.72;;
72559;SDS011;62987;52.382;9.752;2024-03-02T14:12:51;5.85;;;2.33;;
72559;SDS011;62987;52.382;9.752;2024-03-02T14:15:19;6.43;;;2.95;;
72559;SDS011;62987;52.382;9.752;2024-03-02T14:17:48;6.40;;;2.80;;
72559;SDS011;62987;52.382;9.752;2024-03-02T14:20:17;7.15;;;2.85;;
72559;SDS011;62987;52.382;9.752;2024-03-02T14:22:49;6.35;;;2.72;;
72559;SDS011;62987;52.382;9.752;2024-03-02T14:25:19;5.65;;;2.53;;
72559;SDS011;62987;52.382;9.752;2024-03-02T14:27:47;5.53;;;2.72;;
72559;SDS011;62987;52.382;9.752;2024-03-02T14:30:35;5.95;;;2.60;;
72559;SDS011;62987;52.382;9.752;2024-03-02T14:33:04;3.90;;;2.20;;
72559;SDS011;62987;52.382;9.752;2024-03-02T14:35:33;5.80;;;2.25;;
72559;SDS011;62987;52.382;9.752;2024-03-02T14:38:01;6.80;;;2.25;;
72559;SDS011;62987;52.382;9.752;2024-03-02T14:40:31;5.45;;;2.20;;
72559;SDS011;62987;52.382;9.752;2024-03-02T14:43:00;4.25;;;1.60;;
72559;SDS011;62987;52.382;9.752;2024-03-02T14:45:29;6.57;;;2.60;;
72559;SDS011;62987;52.382;9.752;2024-03-02T14:47:58;5.05;;;2.22;;
72559;SDS011;62987;52.382;9.752;2024-03-02T14:50:27;5.78;;;2.20;;
72559;SDS011;62987;52.382;9.752;2024-03-02T14:52:56;6.50;;;2.50;;
72559;SDS011;62987;52.382;9.752;2024-03-02T14:55:26;6.72;;;2.63;;
72559;SDS011;62987;52.382;9.752;2024-03-02T14:57:56;6.50;;;2.67;;
72559;SDS011;62987;52.382;9.752;2024-03-02T15:00:24;7.70;;;3.30;;
72559;SDS011;62987;52.382;9.752;2024-03-02T15:02:53;11.07;;;2.42;;
72559;SDS011;62987;52.382;9.752;2024-03-02T15:05:21;5.32;;;2.10;;
72559;SDS011;62987;52.382;9.752;2024-03-02T15:07:54;5.20;;;2.05;;
72559;SDS011;62987;52.382;9.752;2024-03-02T15:10:22;6.18;;;2.65;;
72559;SDS011;62987;52.382;9.752;2024-03-02T15:12:51;6.32;;;2.88;;
72559;SDS011;62987;52.382;9.752;2024-03-02T15:15:21;7.05;;;2.47;;
72559;SDS011;62987;52.382;9.752;2024-03-02T15:17:50;5.55;;;2.40;;
72559;SDS011;62987;52.382;9.752;2024-03-02T15:20:19;5.38;;;2.40;;
72559;SDS011;62987;52.382;9.752;2024-03-02T15:22:48;6.28;;;2.20;;
72559;SDS011;62987;52.382;9.752;2024-03-02T15:25:17;5.80;;;2.42;;
72559;SDS011;62987;52.382;9.752;2024-03-02T15:27:45;7.15;;;3.10;;
72559;SDS011;62987;52.382;9.752;2024-03-02T15:30:14;5.20;;;2.65;;
72559;SDS011;62987;52.382;9.752;2024-03-02T15:32:44;6.28;;;2.83;;
72559;SDS011;62987;52.382;9.752;2024-03-02T15:35:13;6.55;;;2.88;;
72559;SDS011;62987;52.382;9.752;2024-03-02T15:37:41;4.75;;;2.25;;
72559;SDS011;62987;52.382;9.752;2024-03-02T15:40:10;4.88;;;2.10;;
72559;SDS011;62987;52.382;9.752;2024-03-02T15:42:38;7.53;;;2.65;;
72559;SDS011;62987;52.382;9.752;2024-03-02T15:45:07;5.85;;;2.80;;
72559;SDS011;62987;52.382;9.752;2024-03-02T15:47:36;7.22;;;2.67;;
72559;SDS011;62987;52.382;9.752;2024-03-02T15:50:07;6.07;;;2.72;;
72559;SDS011;62987;52.382;9.752;2024-03-02T15:52:36;5.28;;;2.28;;
72559;SDS011;62987;52.382;9.752;2024-03-02T15:55:05;5.85;;;2.28;;
72559;SDS011;62987;52.382;9.752;2024-03-02T16:17:09;9.05;;;2.53;;
72559;SDS011;62987;52.382;9.752;2024-03-02T16:19:37;7.57;;;2.85;;
72559;SDS011;62987;52.382;9.752;2024-03-02T16:22:08;9.05;;;2.60;;
72559;SDS011;62987;52.382;9.752;2024-03-02T16:24:38;4.88;;;2.30;;
72559;SDS011;62987;52.382;9.752;2024-03-02T16:27:06;5.45;;;2.58;;
72559;SDS011;62987;52.382;9.752;2024-03-02T16:29:35;5.85;;;2.40;;
72559;SDS011;62987;52.382;9.752;2024-03-02T16:32:04;7.55;;;2.80;;
72559;SDS011;62987;52.382;9.752;2024-03-02T16:34:34;6.53;;;2.72;;
72559;SDS011;62987;52.382;9.752;2024-03-02T16:37:05;7.05;;;2.85;;
72559;SDS011;62987;52.382;9.752;2024-03-02T16:39:33;7.03;;;2.80;;
72559;SDS011;62987;52.382;9.752;2024-03-02T16:42:02;8.82;;;2.75;;
72559;SDS011;62987;52.382;9.752;2024-03-02T16:44:30;6.13;;;2.63;;
72559;SDS011;62987;52.382;9.752;2024-03-02T16:46:58;5.50;;;2.38;;
72559;SDS011;62987;52.382;9.752;2024-03-02T16:49:27;6.00;;;2.42;;
72559;SDS011;62987;52.382;9.752;2024-03-02T16:51:57;7.53;;;2.90;;
72559;SDS011;62987;52.382;9.752;2024-03-02T16:54:25;5.55;;;2.58;;
72559;SDS011;62987;52.382;9.752;2024-03-02T16:56:55;6.82;;;2.75;;
72559;SDS011;62987;52.382;9.752;2024-03-02T16:59:23;5.63;;;2.00;;
72559;SDS011;62987;52.382;9.752;2024-03-02T17:01:52;5.68;;;2.60;;
72559;SDS011;62987;52.382;9.752;2024-03-02T17:04:20;5.82;;;2.67;;
72559;SDS011;62987;52.382;9.752;2024-03-02T17:06:50;4.57;;;2.13;;
72559;SDS011;62987;52.382;9.752;2024-03-02T17:09:20;5.75;;;2.40;;
72559;SDS011;62987;52.382;9.752;2024-03-02T17:11:49;5.03;;;2.15;;
72559;SDS011;62987;52.382;9.752;2024-03-02T17:14:17;9.55;;;2.35;;
72559;SDS011;62987;52.382;9.752;2024-03-02T17:16:46;7.60;;;3.10;;
72559;SDS011;62987;52.382;9.752;2024-03-02T17:19:17;6.13;;;2.22;;
72559;SDS011;62987;52.382;9.752;2024-03-02T17:21:46;6.80;;;2.42;;
72559;SDS011;62987;52.382;9.752;2024-03-02T17:24:14;6.40;;;2.47;;
72559;SDS011;62987;52.382;9.752;2024-03-02T17:26:44;5.13;;;2.45;;
72559;SDS011;62987;52.382;9.752;2024-03-02T17:29:12;6.00;;;2.70;;
72559;SDS011;62987;52.382;9.752;2024-03-02T17:31:41;6.47;;;2.67;;
72559;SDS011;62987;52.382;9.752;2024-03-02T17:34:09;7.65;;;3.25;;
72559;SDS011;62987;52.382;9.752;2024-03-02T17:36:38;6.78;;;3.10;;
72559;SDS011;62987;52.382;9.752;2024-03-02T17:39:06;6.28;;;3.13;;
72559;SDS011;62987;52.382;9.752;2024-03-02T17:41:36;8.70;;;3.47;;
72559;SDS011;62987;52.382;9.752;2024-03-02T17:44:07;9.00;;;3.58;;
72559;SDS011;62987;52.382;9.752;2024-03-02T17:46:36;7.60;;;3.20;;
72559;SDS011;62987;52.382;9.752;2024-03-02T17:49:04;7.72;;;3.92;;
72559;SDS011;62987;52.382;9.752;2024-03-02T17:51:33;9.15;;;4.18;;
72559;SDS011;62987;52.382;9.752;2024-03-02T17:54:02;10.18;;;3.90;;
72559;SDS011;62987;52.382;9.752;2024-03-02T17:56:31;11.20;;;4.47;;
72559;SDS011;62987;52.382;9.752;2024-03-02T17:58:59;10.38;;;4.65;;
72559;SDS011;62987;52.382;9.752;2024-03-02T18:01:29;12.50;;;5.10;;
72559;SDS011;62987;52.382;9.752;2024-03-02T18:03:58;10.52;;;4.82;;
72559;SDS011;62987;52.382;9.752;2024-03-02T18:06:26;11.07;;;4.38;;
72559;SDS011;62987;52.382;9.752;2024-03-02T18:08:55;10.82;;;4.32;;
72559;SDS011;62987;52.382;9.752;2024-03-02T18:11:23;11.23;;;4.40;;
72559;SDS011;62987;52.382;9.752;2024-03-02T18:13:52;9.65;;;4.03;;
72559;SDS011;62987;52.382;9.752;2024-03-02T18:16:20;12.68;;;4.57;;
72559;SDS011;62987;52.382;9.752;2024-03-02T18:18:50;12.90;;;4.55;;
72559;SDS011;62987;52.382;9.752;2024-03-02T18:21:19;9.68;;;4.43;;
72559;SDS011;62987;52.382;9.752;2024-03-02T18:23:47;8.13;;;4.32;;
72559;SDS011;62987;52.382;9.752;2024-03-02T18:26:16;8.95;;;4.50;;
72559;SDS011;62987;52.382;9.752;2024-03-02T18:28:48;9.45;;;4.60;;
72559;SDS011;62987;52.382;9.752;2024-03-02T18:31:17;8.82;;;4.72;;
72559;SDS011;62987;52.382;9.752;2024-03-02T18:33:48;9.55;;;4.55;;
72559;SDS011;62987;52.382;9.752;2024-03-02T18:36:19;11.93;;;4.38;;
72559;SDS011;62987;52.382;9.752;2024-03-02T18:38:47;9.90;;;4.38;;
72559;SDS011;62987;52.382;9.752;2024-03-02T18:41:16;10.30;;;4.65;;
72559;SDS011;62987;52.382;9.752;2024-03-02T18:43:44;11.73;;;4.78;;
72559;SDS011;62987;52.382;9.752;2024-03-02T18:46:13;11.68;;;5.47;;
72559;SDS011;62987;52.382;9.752;2024-03-02T18:48:42;11.00;;;5.47;;
72559;SDS011;62987;52.382;9.752;2024-03-02T18:51:12;12.85;;;5.80;;
72559;SDS011;62987;52.382;9.752;2024-03-02T18:53:40;16.52;;;7.03;;
72559;SDS011;62987;52.382;9.752;2024-03-02T18:56:10;10.05;;;5.47;;
72559;SDS011;62987;52.382;9.752;2024-03-02T18:58:39;12.30;;;5.47;;
72559;SDS011;62987;52.382;9.752;2024-03-02T19:01:07;12.30;;;5.45;;
72559;SDS011;62987;52.382;9.752;2024-03-02T19:03:36;15.00;;;6.60;;
72559;SDS011;62987;52.382;9.752;2024-03-02T19:06:05;14.60;;;6.82;;
72559;SDS011;62987;52.382;9.752;2024-03-02T19:08:36;13.95;;;6.63;;
72559;SDS011;62987;52.382;9.752;2024-03-02T19:11:04;14.52;;;6.35;;
72559;SDS011;62987;52.382;9.752;2024-03-02T19:13:33;16.98;;;6.82;;
72559;SDS011;62987;52.382;9.752;2024-03-02T19:16:01;16.65;;;7.45;;
72559;SDS011;62987;52.382;9.752;2024-03-02T19:18:30;18.05;;;8.98;;
72559;SDS011;62987;52.382;9.752;2024-03-02T19:20:59;16.40;;;7.75;;
72559;SDS011;62987;52.382;9.752;2024-03-02T19:23:27;18.48;;;8.10;;
72559;SDS011;62987;52.382;9.752;2024-03-02T19:26:06;16.52;;;7.55;;
72559;SDS011;62987;52.382;9.752;2024-03-02T19:28:36;16.52;;;7.43;;
72559;SDS011;62987;52.382;9.752;2024-03-02T19:31:04;19.70;;;8.32;;
72559;SDS011;62987;52.382;9.752;2024-03-02T19:33:33;17.60;;;7.45;;
72559;SDS011;62987;52.382;9.752;2024-03-02T19:36:01;14.45;;;7.30;;
72559;SDS011;62987;52.382;9.752;2024-03-02T19:38:31;16.23;;;7.78;;
72559;SDS011;62987;52.382;9.752;2024-03-02T19:41:01;14.82;;;7.68;;
72559;SDS011;62987;52.382;9.752;2024-03-02T19:43:33;14.80;;;6.97;;
72559;SDS011;62987;52.382;9.752;2024-03-02T19:46:01;17.02;;;8.10;;
72559;SDS011;62987;52.382;9.752;2024-03-02T19:48:30;16.27;;;8.20;;
72559;SDS011;62987;52.382;9.752;2024-03-02T19:50:58;15.27;;;7.50;;
72559;SDS011;62987;52.382;9.752;2024-03-02T19:53:26;12.88;;;7.70;;
72559;SDS011;62987;52.382;9.752;2024-03-02T19:55:55;15.93;;;7.55;;
72559;SDS011;62987;52.382;9.752;2024-03-02T19:58:23;18.30;;;7.63;;
72559;SDS011;62987;52.382;9.752;2024-03-02T20:00:54;18.70;;;8.57;;
72559;SDS011;62987;52.382;9.752;2024-03-02T20:03:23;17.17;;;8.13;;
72559;SDS011;62987;52.382;9.752;2024-03-02T20:05:52;22.85;;;9.48;;
72559;SDS011;62987;52.382;9.752;2024-03-02T20:08:21;15.35;;;8.07;;
72559;SDS011;62987;52.382;9.752;2024-03-02T20:10:49;21.15;;;8.07;;
72559;SDS011;62987;52.382;9.752;2024-03-02T20:13:18;17.27;;;7.80;;
72559;SDS011;62987;52.382;9.752;2024-03-02T20:15:46;18.58;;;8.98;;
72559;SDS011;62987;52.382;9.752;2024-03-02T20:18:16;21.02;;;9.20;;
72559;SDS011;62987;52.382;9.752;2024-03-02T20:20:45;18.65;;;9.20;;
72559;SDS011;62987;52.382;9.752;2024-03-02T20:23:13;18.65;;;9.20;;
72559;SDS011;62987;52.382;9.752;2024-03-02T20:25:42;17.50;;;8.13;;
72559;SDS011;62987;52.382;9.752;2024-03-02T20:28:11;18.13;;;9.30;;
72559;SDS011;62987;52.382;9.752;2024-03-02T20:30:39;18.02;;;9.18;;
72559;SDS011;62987;52.382;9.752;2024-03-02T20:33:08;21.70;;;9.40;;
72559;SDS011;62987;52.382;9.752;2024-03-02T20:35:38;20.92;;;9.27;;
72559;SDS011;62987;52.382;9.752;2024-03-02T20:38:06;17.27;;;9.18;;
72559;SDS011;62987;52.382;9.752;2024-03-02T20:40:35;21.20;;;9.52;;
72559;SDS011;62987;52.382;9.752;2024-03-02T20:43:03;18.90;;;9.18;;
72559;SDS011;62987;52.382;9.752;2024-03-02T20:45:32;21.63;;;10.23;;
72559;SDS011;62987;52.382;9.752;2024-03-02T20:48:02;20.92;;;8.90;;
72559;SDS011;62987;52.382;9.752;2024-03-02T20:50:31;21.45;;;9.10;;
72559;SDS011;62987;52.382;9.752;2024-03-02T20:53:01;17.73;;;8.65;;
72559;SDS011;62987;52.382;9.752;2024-03-02T20:55:34;18.58;;;9.13;;
72559;SDS011;62987;52.382;9.752;2024-03-02T20:58:05;18.15;;;8.98;;
72559;SDS011;62987;52.382;9.752;2024-03-02T21:00:33;21.65;;;9.88;;
72559;SDS011;62987;52.382;9.752;2024-03-02T21:03:03;19.75;;;9.38;;
72559;SDS011;62987;52.382;9.752;2024-03-02T21:05:31;21.58;;;9.70;;
72559;SDS011;62987;52.382;9.752;2024-03-02T21:08:01;20.05;;;9.52;;
72559;SDS011;62987;52.382;9.752;2024-03-02T21:10:30;22.95;;;10.52;;
72559;SDS011;62987;52.382;9.752;2024-03-02T21:12:58;20.48;;;9.05;;
72559;SDS011;62987;52.382;9.752;2024-03-02T21:15:27;22.02;;;10.40;;
72559;SDS011;62987;52.382;9.752;2024-03-02T21:17:55;20.60;;;9.63;;
72559;SDS011;62987;52.382;9.752;2024-03-02T21:20:23;22.65;;;9.68;;
72559;SDS011;62987;52.382;9.752;2024-03-02T21:22:52;20.23;;;8.65;;
72559;SDS011;62987;52.382;9.752;2024-03-02T21:25:22;18.67;;;8.75;;
72559;SDS011;62987;52.382;9.752;2024-03-02T21:27:51;21.77;;;9.20;;
72559;SDS011;62987;52.382;9.752;2024-03-02T21:30:20;22.90;;;9.85;;
72559;SDS011;62987;52.382;9.752;2024-03-02T21:51:36;18.13;;;9.13;;
72559;SDS011;62987;52.382;9.752;2024-03-02T21:54:05;20.10;;;10.23;;
72559;SDS011;62987;52.382;9.752;2024-03-02T21:56:33;21.58;;;9.50;;
72559;SDS011;62987;52.382;9.752;2024-03-02T21:59:02;20.50;;;9.52;;
72559;SDS011;62987;52.382;9.752;2024-03-02T22:01:30;20.80;;;10.18;;
72559;SDS011;62987;52.382;9.752;2024-03-02T22:03:58;19.38;;;10.30;;
72559;SDS011;62987;52.382;9.752;2024-03-02T22:06:27;19.88;;;8.38;;
72559;SDS011;62987;52.382;9.752;2024-03-02T22:08:58;20.25;;;9.93;;
72559;SDS011;62987;52.382;9.752;2024-03-02T22:11:26;21.48;;;10.27;;
72559;SDS011;62987;52.382;9.752;2024-03-02T22:13:55;20.02;;;9.88;;
72559;SDS011;62987;52.382;9.752;2024-03-02T22:16:23;21.02;;;9.63;;
72559;SDS011;62987;52.382;9.752;2024-03-02T22:18:55;21.00;;;10.35;;
72559;SDS011;62987;52.382;9.752;2024-03-02T22:21:24;19.73;;;10.10;;
72559;SDS011;62987;52.382;9.752;2024-03-02T22:23:52;18.02;;;9.15;;
72559;SDS011;62987;52.382;9.752;2024-03-02T22:26:22;21.55;;;9.80;;
72559;SDS011;62987;52.382;9.752;2024-03-02T22:28:51;20.58;;;10.48;;
72559;SDS011;62987;52.382;9.752;2024-03-02T22:31:19;23.10;;;10.13;;
72559;SDS011;62987;52.382;9.752;2024-03-02T22:33:48;20.52;;;9.52;;
72559;SDS011;62987;52.382;9.752;2024-03-02T22:36:16;21.05;;;10.00;;
72559;SDS011;62987;52.382;9.752;2024-03-02T22:38:45;22.40;;;10.68;;
72559;SDS011;62987;52.382;9.752;2024-03-02T22:41:15;21.65;;;10.75;;
72559;SDS011;62987;52.382;9.752;2024-03-02T22:43:44;21.95;;;9.30;;
72559;SDS011;62987;52.382;9.752;2024-03-02T22:46:16;20.95;;;9.95;;
72559;SDS011;62987;52.382;9.752;2024-03-02T22:48:44;22.25;;;10.10;;
72559;SDS011;62987;52.382;9.752;2024-03-02T22:51:19;20.45;;;9.40;;
72559;SDS011;62987;52.382;9.752;2024-03-02T22:53:48;18.88;;;10.00;;
72559;SDS011;62987;52.382;9.752;2024-03-02T22:56:17;19.60;;;9.70;;
72559;SDS011;62987;52.382;9.752;2024-03-02T22:58:47;21.05;;;9.73;;
72559;SDS011;62987;52.382;9.752;2024-03-02T23:01:16;24.63;;;10.57;;
72559;SDS011;62987;52.382;9.752;2024-03-02T23:03:48;19.73;;;10.32;;
72559;SDS011;62987;52.382;9.752;2024-03-02T23:06:16;22.90;;;10.25;;
72559;SDS011;62987;52.382;9.752;2024-03-02T23:08:46;23.50;;;10.13;;
72559;SDS011;62987;52.382;9.752;2024-03-02T23:11:14;21.80;;;9.98;;
72559;SDS011;62987;52.382;9.752;2024-03-02T23:13:43;22.65;;;10.90;;
72559;SDS011;62987;52.382;9.752;2024-03-02T23:16:13;27.05;;;11.07;;
72559;SDS011;62987;52.382;9.752;2024-03-02T23:18:41;22.92;;;11.63;;
72559;SDS011;62987;52.382;9.752;2024-03-02T23:21:10;24.77;;;11.10;;
72559;SDS011;62987;52.382;9.752;2024-03-02T23:23:39;20.95;;;10.07;;
72559;SDS011;62987;52.382;9.752;2024-03-02T23:26:07;25.10;;;10.50;;
72559;SDS011;62987;52.382;9.752;2024-03-02T23:28:36;25.10;;;11.57;;
72559;SDS011;62987;52.382;9.752;2024-03-02T23:31:05;25.67;;;11.40;;
72559;SDS011;62987;52.382;9.752;2024-03-02T23:33:35;24.05;;;10.68;;
72559;SDS011;62987;52.382;9.752;2024-03-02T23:36:04;21.40;;;11.20;;
72559;SDS011;62987;52.382;9.752;2024-03-02T23:38:32;21.20;;;11.02;;
72559;SDS011;62987;52.382;9.752;2024-03-02T23:41:01;24.85;;;10.95;;
72559;SDS011;62987;52.382;9.752;2024-03-02T23:43:37;27.48;;;12.30;;
72559;SDS011;62987;52.382;9.752;2024-03-02T23:46:05;26.30;;;11.63;;
72559;SDS011;62987;52.382;9.752;2024-03-02T23:48:36;25.02;;;12.27;;
72559;SDS011;62987;52.382;9.752;2024-03-02T23:51:04;26.42;;;11.70;;
72559;SDS011;62987;52.382;9.752;2024-03-02T23:53:33;24.77;;;10.98;;
72559;SDS011;62987;52.382;9.752;2024-03-02T23:56:09;24.33;;;11.15;;
72559;SDS011;62987;52.382;9.752;2024-03-02T23:58:38;22.05;;;11.15;;
